Ana Sayfa
METAR-TAF:

METAR-TAF

Havaalanları :

Chautauqua County/Dunkirk Airport

Dunkirk, New York, Amerika Birleşik Devletleri

Enlem: 42-29-35N, Boylam: 079-16-33W, yükseklik: 211 m

Güncel hava durumu gözlemi

Rapor saat 13:53 UTC de 43 dakika önce yapıldı.
Rüzgar batı/kuzeybatıdan 16 kt ve 24 kt'a kadar ani rüzgarlar
Sıcaklık -5°C
Nem 63%
Basınç 1024 hPa
Görüş mesafesi: 8.0 km
2600 ft yükseklikte az bulutlu
3500 ft yükseklikte çok bulutlu
hafif kar

METAR: KDKK 231353Z AUTO 30016G24KT 5SM -SN FEW026 OVC035 M05/M11 A3024 RMK AO2 SNE14B44 SLP250 P0000 T10501106

Saat: 09:36 (14:36 UTC)


TAF: eksik

4.000'den fazla havaalanı için hava durumu gözlemleri ve tahminleri (METAR ve TAF raporları).

Kullanılabilir istasyonlar harita üzerinde sarı ve kırmızı noktalarla gösterilir.

İstasyonun adını görmek için fareyi noktanın üzerinde gezdirin.

Sonrasında hava gözlem ve tahminlerini görmek için tıklayın.

Haritayı değiştirmek için: yaklaştırmak için siyah artı işaretli yeşil düğmeye ve uzaklaştırmak için de eksi işaretli düğmeye hızla tıklayın; bitişik haritalar için yeşil okları kullanın.


METAR-TAF: